sensor_id;sensor_type;location;lat;lon;timestamp;pressure;altitude;pressure_sealevel;temperature;humidity
78488;BME280;67885;49.758;9.582;2023-04-08T00:01:30;99502.91;;;11.96;53.63
78488;BME280;67885;49.758;9.582;2023-04-08T00:03:56;99451.66;;;11.62;53.47
78488;BME280;67885;49.758;9.582;2023-04-08T00:06:23;99497.81;;;11.82;53.14
78488;BME280;67885;49.758;9.582;2023-04-08T00:08:51;99493.72;;;11.78;53.61
78488;BME280;67885;49.758;9.582;2023-04-08T00:11:18;99499.38;;;11.73;53.75
78488;BME280;67885;49.758;9.582;2023-04-08T00:13:44;99486.50;;;11.69;55.20
78488;BME280;67885;49.758;9.582;2023-04-08T00:16:12;99497.97;;;11.80;55.58
78488;BME280;67885;49.758;9.582;2023-04-08T00:18:39;99500.34;;;11.84;55.73
78488;BME280;67885;49.758;9.582;2023-04-08T00:21:07;99497.69;;;11.84;56.39
78488;BME280;67885;49.758;9.582;2023-04-08T00:23:33;99499.75;;;11.80;56.33
78488;BME280;67885;49.758;9.582;2023-04-08T00:26:00;99491.44;;;11.73;56.17
78488;BME280;67885;49.758;9.582;2023-04-08T00:28:27;99503.25;;;11.69;55.92
78488;BME280;67885;49.758;9.582;2023-04-08T00:30:54;99492.66;;;11.58;55.26
78488;BME280;67885;49.758;9.582;2023-04-08T00:33:21;99493.75;;;11.55;56.18
78488;BME280;67885;49.758;9.582;2023-04-08T00:35:50;99477.13;;;11.42;56.14
78488;BME280;67885;49.758;9.582;2023-04-08T00:38:16;99491.69;;;11.47;55.50
78488;BME280;67885;49.758;9.582;2023-04-08T00:40:43;99495.56;;;11.55;56.89
78488;BME280;67885;49.758;9.582;2023-04-08T00:43:10;99501.72;;;11.55;56.48
78488;BME280;67885;49.758;9.582;2023-04-08T00:45:37;99497.38;;;11.54;56.38
78488;BME280;67885;49.758;9.582;2023-04-08T00:48:04;99507.88;;;11.56;57.02
78488;BME280;67885;49.758;9.582;2023-04-08T00:50:32;99507.03;;;11.55;56.50
78488;BME280;67885;49.758;9.582;2023-04-08T00:52:59;99496.69;;;11.41;56.65
78488;BME280;67885;49.758;9.582;2023-04-08T00:55:25;99506.78;;;11.47;57.39
78488;BME280;67885;49.758;9.582;2023-04-08T00:57:52;99512.22;;;11.45;57.81
78488;BME280;67885;49.758;9.582;2023-04-08T01:00:19;99515.69;;;11.46;57.21
78488;BME280;67885;49.758;9.582;2023-04-08T01:02:54;99509.94;;;11.41;57.01
78488;BME280;67885;49.758;9.582;2023-04-08T01:05:32;99533.31;;;11.36;57.20
78488;BME280;67885;49.758;9.582;2023-04-08T01:08:06;99516.91;;;11.53;56.91
78488;BME280;67885;49.758;9.582;2023-04-08T01:10:36;99511.25;;;11.58;55.98
78488;BME280;67885;49.758;9.582;2023-04-08T01:13:08;99517.16;;;11.50;54.84
78488;BME280;67885;49.758;9.582;2023-04-08T01:15:38;99503.03;;;11.27;55.73
78488;BME280;67885;49.758;9.582;2023-04-08T01:18:10;99507.03;;;11.21;56.41
78488;BME280;67885;49.758;9.582;2023-04-08T01:20:40;99502.31;;;11.13;56.56
78488;BME280;67885;49.758;9.582;2023-04-08T01:23:14;99516.66;;;11.22;56.18
78488;BME280;67885;49.758;9.582;2023-04-08T01:25:46;99503.16;;;11.14;57.21
78488;BME280;67885;49.758;9.582;2023-04-08T01:28:17;99516.28;;;11.27;56.09
78488;BME280;67885;49.758;9.582;2023-04-08T01:30:46;99498.59;;;11.27;56.05
78488;BME280;67885;49.758;9.582;2023-04-08T01:33:16;99513.66;;;11.38;56.05
78488;BME280;67885;49.758;9.582;2023-04-08T01:35:44;99515.94;;;11.43;56.37
78488;BME280;67885;49.758;9.582;2023-04-08T01:38:15;99431.72;;;10.90;55.17
78488;BME280;67885;49.758;9.582;2023-04-08T01:40:44;99514.03;;;11.45;55.83
78488;BME280;67885;49.758;9.582;2023-04-08T01:43:16;99515.47;;;11.49;55.33
78488;BME280;67885;49.758;9.582;2023-04-08T01:45:44;99515.94;;;11.54;54.93
78488;BME280;67885;49.758;9.582;2023-04-08T01:48:13;99493.41;;;11.48;54.45
78488;BME280;67885;49.758;9.582;2023-04-08T01:50:41;99430.88;;;11.01;55.16
78488;BME280;67885;49.758;9.582;2023-04-08T01:53:09;99503.88;;;11.50;54.53
78488;BME280;67885;49.758;9.582;2023-04-08T01:55:37;99467.50;;;11.18;55.19
78488;BME280;67885;49.758;9.582;2023-04-08T01:58:06;99495.22;;;11.14;54.66
78488;BME280;67885;49.758;9.582;2023-04-08T02:00:39;99512.44;;;11.31;55.00
78488;BME280;67885;49.758;9.582;2023-04-08T02:03:11;99420.94;;;10.57;56.04
78488;BME280;67885;49.758;9.582;2023-04-08T02:05:38;99431.81;;;10.77;56.61
78488;BME280;67885;49.758;9.582;2023-04-08T02:08:05;99479.78;;;11.08;55.52
78488;BME280;67885;49.758;9.582;2023-04-08T02:10:32;99542.22;;;11.23;55.20
78488;BME280;67885;49.758;9.582;2023-04-08T02:12:59;99517.03;;;11.29;56.11
78488;BME280;67885;49.758;9.582;2023-04-08T02:15:33;99400.38;;;10.61;54.65
78488;BME280;67885;49.758;9.582;2023-04-08T02:18:10;99519.06;;;11.25;55.76
78488;BME280;67885;49.758;9.582;2023-04-08T02:20:43;99553.66;;;11.24;55.08
78488;BME280;67885;49.758;9.582;2023-04-08T02:23:16;99513.41;;;11.19;55.13
78488;BME280;67885;49.758;9.582;2023-04-08T02:25:46;99527.16;;;11.12;55.08
78488;BME280;67885;49.758;9.582;2023-04-08T02:28:14;99519.53;;;11.08;55.80
78488;BME280;67885;49.758;9.582;2023-04-08T02:30:47;99522.41;;;10.93;54.91
78488;BME280;67885;49.758;9.582;2023-04-08T02:33:17;99525.50;;;10.76;56.73
78488;BME280;67885;49.758;9.582;2023-04-08T02:35:47;99518.97;;;10.69;56.03
78488;BME280;67885;49.758;9.582;2023-04-08T02:38:14;99512.81;;;10.57;56.53
78488;BME280;67885;49.758;9.582;2023-04-08T02:40:41;99523.78;;;10.63;56.69
78488;BME280;67885;49.758;9.582;2023-04-08T02:43:08;99412.69;;;10.02;56.49
78488;BME280;67885;49.758;9.582;2023-04-08T02:45:40;99486.16;;;10.47;56.27
78488;BME280;67885;49.758;9.582;2023-04-08T02:48:07;99526.81;;;10.70;56.42
78488;BME280;67885;49.758;9.582;2023-04-08T02:50:35;99529.56;;;10.69;55.52
78488;BME280;67885;49.758;9.582;2023-04-08T02:53:03;99527.03;;;10.67;55.89
78488;BME280;67885;49.758;9.582;2023-04-08T02:55:29;99490.97;;;10.42;55.79
78488;BME280;67885;49.758;9.582;2023-04-08T02:57:56;99511.22;;;10.54;55.40
78488;BME280;67885;49.758;9.582;2023-04-08T03:00:23;99535.34;;;10.62;55.22
78488;BME280;67885;49.758;9.582;2023-04-08T03:02:49;99537.25;;;10.60;55.89
78488;BME280;67885;49.758;9.582;2023-04-08T03:05:16;99551.66;;;10.56;54.53
78488;BME280;67885;49.758;9.582;2023-04-08T03:07:44;99543.59;;;10.58;54.62
78488;BME280;67885;49.758;9.582;2023-04-08T03:10:11;99523.69;;;10.41;54.66
78488;BME280;67885;49.758;9.582;2023-04-08T03:12:37;99546.44;;;10.43;54.90
78488;BME280;67885;49.758;9.582;2023-04-08T03:15:05;99544.06;;;10.27;54.65
78488;BME280;67885;49.758;9.582;2023-04-08T03:17:32;99495.72;;;9.88;55.33
78488;BME280;67885;49.758;9.582;2023-04-08T03:19:58;99557.13;;;10.18;55.32
78488;BME280;67885;49.758;9.582;2023-04-08T03:22:25;99514.66;;;9.58;55.22
78488;BME280;67885;49.758;9.582;2023-04-08T03:24:53;99555.78;;;10.12;54.96
78488;BME280;67885;49.758;9.582;2023-04-08T03:27:20;99552.13;;;10.13;54.72
78488;BME280;67885;49.758;9.582;2023-04-08T03:29:46;99554.78;;;10.13;55.08
78488;BME280;67885;49.758;9.582;2023-04-08T03:32:13;99548.78;;;10.11;54.93
78488;BME280;67885;49.758;9.582;2023-04-08T03:34:40;99564.72;;;10.22;55.30
78488;BME280;67885;49.758;9.582;2023-04-08T03:37:07;99546.53;;;10.18;54.69
78488;BME280;67885;49.758;9.582;2023-04-08T03:39:33;99537.31;;;10.10;55.01
78488;BME280;67885;49.758;9.582;2023-04-08T03:42:01;99558.97;;;10.28;54.61
78488;BME280;67885;49.758;9.582;2023-04-08T03:44:28;99535.28;;;10.27;54.91
78488;BME280;67885;49.758;9.582;2023-04-08T03:46:55;99564.72;;;10.35;55.54
78488;BME280;67885;49.758;9.582;2023-04-08T03:49:22;99548.16;;;10.32;54.46
78488;BME280;67885;49.758;9.582;2023-04-08T03:51:49;99553.25;;;10.35;55.67
78488;BME280;67885;49.758;9.582;2023-04-08T03:54:16;99541.91;;;10.08;54.53
78488;BME280;67885;49.758;9.582;2023-04-08T03:56:42;99556.09;;;10.32;55.35
78488;BME280;67885;49.758;9.582;2023-04-08T03:59:10;99558.97;;;10.28;54.99
78488;BME280;67885;49.758;9.582;2023-04-08T04:01:37;99563.41;;;10.28;54.30
78488;BME280;67885;49.758;9.582;2023-04-08T04:04:03;99565.47;;;10.24;55.08
78488;BME280;67885;49.758;9.582;2023-04-08T04:06:31;99547.19;;;10.08;55.68
78488;BME280;67885;49.758;9.582;2023-04-08T04:08:57;99567.72;;;10.18;54.92
78488;BME280;67885;49.758;9.582;2023-04-08T04:11:24;99566.84;;;10.17;54.89
78488;BME280;67885;49.758;9.582;2023-04-08T04:13:50;99563.78;;;10.10;55.56
78488;BME280;67885;49.758;9.582;2023-04-08T04:16:18;99563.91;;;10.09;55.84
78488;BME280;67885;49.758;9.582;2023-04-08T04:18:45;99564.03;;;10.07;55.35
78488;BME280;67885;49.758;9.582;2023-04-08T04:21:11;99521.06;;;9.79;55.38
78488;BME280;67885;49.758;9.582;2023-04-08T04:23:38;99574.50;;;10.09;55.09
78488;BME280;67885;49.758;9.582;2023-04-08T04:26:07;99571.00;;;10.08;55.38
78488;BME280;67885;49.758;9.582;2023-04-08T04:28:34;99580.75;;;10.08;54.47
78488;BME280;67885;49.758;9.582;2023-04-08T04:31:00;99572.50;;;10.00;54.37
78488;BME280;67885;49.758;9.582;2023-04-08T04:33:28;99583.00;;;10.01;54.96
78488;BME280;67885;49.758;9.582;2023-04-08T04:35:55;99581.53;;;9.97;55.63
78488;BME280;67885;49.758;9.582;2023-04-08T04:38:22;99567.66;;;9.93;55.14
78488;BME280;67885;49.758;9.582;2023-04-08T04:40:48;99582.66;;;10.06;54.56
78488;BME280;67885;49.758;9.582;2023-04-08T04:43:15;99579.50;;;10.01;54.94
78488;BME280;67885;49.758;9.582;2023-04-08T04:45:42;99579.19;;;9.92;55.46
78488;BME280;67885;49.758;9.582;2023-04-08T04:48:09;99570.75;;;9.87;55.17
78488;BME280;67885;49.758;9.582;2023-04-08T04:50:37;99575.09;;;9.88;55.59
78488;BME280;67885;49.758;9.582;2023-04-08T04:53:03;99583.13;;;9.87;55.80
78488;BME280;67885;49.758;9.582;2023-04-08T04:55:30;99580.91;;;9.81;55.23
78488;BME280;67885;49.758;9.582;2023-04-08T04:57:57;99567.38;;;9.72;55.99
78488;BME280;67885;49.758;9.582;2023-04-08T05:00:23;99593.41;;;9.78;55.31
78488;BME280;67885;49.758;9.582;2023-04-08T05:02:50;99595.53;;;9.73;56.05
78488;BME280;67885;49.758;9.582;2023-04-08T05:05:16;99599.13;;;9.72;56.15
78488;BME280;67885;49.758;9.582;2023-04-08T05:07:44;99597.22;;;9.74;56.43
78488;BME280;67885;49.758;9.582;2023-04-08T05:10:11;99551.25;;;9.51;55.92
78488;BME280;67885;49.758;9.582;2023-04-08T05:12:38;99597.22;;;9.74;55.70
78488;BME280;67885;49.758;9.582;2023-04-08T05:15:05;99598.38;;;9.83;55.31
78488;BME280;67885;49.758;9.582;2023-04-08T05:17:32;99544.47;;;9.47;56.27
78488;BME280;67885;49.758;9.582;2023-04-08T05:19:59;99608.22;;;9.68;56.00
78488;BME280;67885;49.758;9.582;2023-04-08T05:22:26;99591.53;;;9.55;56.40
78488;BME280;67885;49.758;9.582;2023-04-08T05:24:54;99610.88;;;9.55;57.34
78488;BME280;67885;49.758;9.582;2023-04-08T05:27:20;99617.13;;;9.54;56.38
78488;BME280;67885;49.758;9.582;2023-04-08T05:29:47;99584.13;;;9.34;56.18
78488;BME280;67885;49.758;9.582;2023-04-08T05:32:13;99622.31;;;9.43;57.13
78488;BME280;67885;49.758;9.582;2023-04-08T05:34:41;99590.69;;;9.16;56.53
78488;BME280;67885;49.758;9.582;2023-04-08T05:37:07;99623.66;;;9.23;57.88
78488;BME280;67885;49.758;9.582;2023-04-08T05:39:34;99623.66;;;9.23;57.56
78488;BME280;67885;49.758;9.582;2023-04-08T05:42:03;99632.31;;;9.25;56.76
78488;BME280;67885;49.758;9.582;2023-04-08T05:44:29;99605.78;;;9.14;56.94
78488;BME280;67885;49.758;9.582;2023-04-08T05:46:56;99624.94;;;9.30;57.78
78488;BME280;67885;49.758;9.582;2023-04-08T05:49:24;99619.13;;;9.38;57.21
78488;BME280;67885;49.758;9.582;2023-04-08T05:51:51;99618.19;;;9.39;57.62
78488;BME280;67885;49.758;9.582;2023-04-08T05:54:17;99561.81;;;9.13;57.13
78488;BME280;67885;49.758;9.582;2023-04-08T05:56:44;99628.88;;;9.63;57.62
78488;BME280;67885;49.758;9.582;2023-04-08T05:59:13;99620.06;;;9.62;56.42
78488;BME280;67885;49.758;9.582;2023-04-08T06:01:40;99633.91;;;9.79;56.33
78488;BME280;67885;49.758;9.582;2023-04-08T06:04:06;99631.09;;;9.82;55.91
78488;BME280;67885;49.758;9.582;2023-04-08T06:06:33;99611.28;;;9.75;56.62
78488;BME280;67885;49.758;9.582;2023-04-08T06:08:59;99643.63;;;9.91;55.93
78488;BME280;67885;49.758;9.582;2023-04-08T06:11:26;99602.31;;;9.65;55.20
78488;BME280;67885;49.758;9.582;2023-04-08T06:13:53;99648.44;;;9.86;56.12
78488;BME280;67885;49.758;9.582;2023-04-08T06:16:21;99649.59;;;9.82;55.83
78488;BME280;67885;49.758;9.582;2023-04-08T06:18:47;99655.84;;;9.81;56.82
78488;BME280;67885;49.758;9.582;2023-04-08T06:21:14;99652.84;;;9.86;55.46
78488;BME280;67885;49.758;9.582;2023-04-08T06:23:41;99634.47;;;9.71;55.95
78488;BME280;67885;49.758;9.582;2023-04-08T06:26:07;99646.94;;;9.69;56.43
78488;BME280;67885;49.758;9.582;2023-04-08T06:28:34;99659.31;;;9.82;56.61
78488;BME280;67885;49.758;9.582;2023-04-08T06:31:01;99659.72;;;9.88;55.97
78488;BME280;67885;49.758;9.582;2023-04-08T06:33:29;99643.34;;;9.83;56.91
78488;BME280;67885;49.758;9.582;2023-04-08T06:36:01;99671.16;;;10.02;56.84
78488;BME280;67885;49.758;9.582;2023-04-08T06:38:29;99673.38;;;10.08;56.89
78488;BME280;67885;49.758;9.582;2023-04-08T06:40:56;99675.59;;;10.14;56.88
78488;BME280;67885;49.758;9.582;2023-04-08T06:43:27;99676.75;;;10.23;56.25
78488;BME280;67885;49.758;9.582;2023-04-08T06:45:53;99679.16;;;10.26;56.04
78488;BME280;67885;49.758;9.582;2023-04-08T06:48:20;99682.44;;;10.29;55.98
78488;BME280;67885;49.758;9.582;2023-04-08T06:50:49;99684.69;;;10.36;55.89
78488;BME280;67885;49.758;9.582;2023-04-08T06:53:15;99686.03;;;10.41;55.91
78488;BME280;67885;49.758;9.582;2023-04-08T06:55:42;99682.31;;;10.44;56.00
78488;BME280;67885;49.758;9.582;2023-04-08T06:58:08;99686.91;;;10.42;56.62
78488;BME280;67885;49.758;9.582;2023-04-08T07:00:35;99684.97;;;10.44;55.91
78488;BME280;67885;49.758;9.582;2023-04-08T07:03:02;99686.16;;;10.40;56.43
78488;BME280;67885;49.758;9.582;2023-04-08T07:05:28;99690.72;;;10.38;56.17
78488;BME280;67885;49.758;9.582;2023-04-08T07:07:57;99694.44;;;10.35;57.09
78488;BME280;67885;49.758;9.582;2023-04-08T07:10:23;99692.41;;;10.39;56.14
78488;BME280;67885;49.758;9.582;2023-04-08T07:12:50;99690.28;;;10.44;56.52
78488;BME280;67885;49.758;9.582;2023-04-08T07:15:17;99690.78;;;10.49;56.31
78488;BME280;67885;49.758;9.582;2023-04-08T07:17:44;99691.31;;;10.54;56.34
78488;BME280;67885;49.758;9.582;2023-04-08T07:20:11;99694.56;;;10.58;56.33
78488;BME280;67885;49.758;9.582;2023-04-08T07:22:38;99686.41;;;10.61;54.84
78488;BME280;67885;49.758;9.582;2023-04-08T07:25:07;99678.63;;;10.46;54.90
78488;BME280;67885;49.758;9.582;2023-04-08T07:27:34;99680.13;;;10.25;55.99
78488;BME280;67885;49.758;9.582;2023-04-08T07:30:00;99700.22;;;10.27;56.46
78488;BME280;67885;49.758;9.582;2023-04-08T07:32:27;99710.81;;;10.27;57.33
78488;BME280;67885;49.758;9.582;2023-04-08T07:34:54;99721.00;;;10.34;56.16
78488;BME280;67885;49.758;9.582;2023-04-08T07:37:20;99714.84;;;10.33;55.46
78488;BME280;67885;49.758;9.582;2023-04-08T07:39:47;99714.84;;;10.33;55.62
78488;BME280;67885;49.758;9.582;2023-04-08T07:42:15;99622.41;;;9.80;55.68
78488;BME280;67885;49.758;9.582;2023-04-08T07:44:43;99718.16;;;10.37;56.04
78488;BME280;67885;49.758;9.582;2023-04-08T07:47:10;99729.63;;;10.61;56.26
78488;BME280;67885;49.758;9.582;2023-04-08T07:49:37;99731.75;;;10.69;55.76
78488;BME280;67885;49.758;9.582;2023-04-08T07:52:04;99729.19;;;10.68;55.69
78488;BME280;67885;49.758;9.582;2023-04-08T07:54:31;99727.28;;;10.70;56.00
78488;BME280;67885;49.758;9.582;2023-04-08T07:56:58;99726.09;;;10.74;56.22
78488;BME280;67885;49.758;9.582;2023-04-08T07:59:28;99729.03;;;10.82;56.65
78488;BME280;67885;49.758;9.582;2023-04-08T08:01:55;99727.84;;;10.86;55.38
78488;BME280;67885;49.758;9.582;2023-04-08T08:04:21;99726.91;;;10.87;55.13
78488;BME280;67885;49.758;9.582;2023-04-08T08:06:50;99722.91;;;10.82;55.57
78488;BME280;67885;49.758;9.582;2023-04-08T08:09:17;99726.34;;;10.95;56.21
78488;BME280;67885;49.758;9.582;2023-04-08T08:11:43;99725.28;;;10.98;57.06
78488;BME280;67885;49.758;9.582;2023-04-08T08:14:10;99723.13;;;11.03;56.04
78488;BME280;67885;49.758;9.582;2023-04-08T08:16:39;99733.16;;;11.10;57.07
78488;BME280;67885;49.758;9.582;2023-04-08T08:19:06;99744.03;;;11.19;55.93
78488;BME280;67885;49.758;9.582;2023-04-08T08:21:35;99737.66;;;11.21;55.70
78488;BME280;67885;49.758;9.582;2023-04-08T08:24:02;99753.34;;;11.24;54.40
78488;BME280;67885;49.758;9.582;2023-04-08T08:26:29;99752.84;;;11.19;54.18
78488;BME280;67885;49.758;9.582;2023-04-08T08:28:55;99746.69;;;11.19;54.30
78488;BME280;67885;49.758;9.582;2023-04-08T08:31:22;99747.03;;;11.14;55.27
78488;BME280;67885;49.758;9.582;2023-04-08T08:33:50;99747.28;;;11.11;55.37
78488;BME280;67885;49.758;9.582;2023-04-08T08:36:16;99754.88;;;11.16;55.25
78488;BME280;67885;49.758;9.582;2023-04-08T08:38:43;99716.97;;;11.02;55.07
78488;BME280;67885;49.758;9.582;2023-04-08T08:41:10;99753.84;;;11.29;54.73
78488;BME280;67885;49.758;9.582;2023-04-08T08:43:37;99741.66;;;11.27;54.53
78488;BME280;67885;49.758;9.582;2023-04-08T08:46:09;99754.88;;;11.40;55.44
78488;BME280;67885;49.758;9.582;2023-04-08T08:48:36;99753.44;;;11.47;54.42
78488;BME280;67885;49.758;9.582;2023-04-08T08:51:08;99759.50;;;11.49;54.78
78488;BME280;67885;49.758;9.582;2023-04-08T08:53:36;99760.09;;;11.53;53.64
78488;BME280;67885;49.758;9.582;2023-04-08T08:56:03;99757.91;;;11.46;53.39
78488;BME280;67885;49.758;9.582;2023-04-08T08:58:30;99766.66;;;11.60;53.47
78488;BME280;67885;49.758;9.582;2023-04-08T09:00:57;99777.47;;;11.57;52.64
78488;BME280;67885;49.758;9.582;2023-04-08T09:03:25;99772.75;;;11.49;53.35
78488;BME280;67885;49.758;9.582;2023-04-08T09:05:53;99736.88;;;11.08;53.84
78488;BME280;67885;49.758;9.582;2023-04-08T09:08:27;99777.19;;;11.48;52.83
78488;BME280;67885;49.758;9.582;2023-04-08T09:10:55;99780.59;;;11.51;52.47
78488;BME280;67885;49.758;9.582;2023-04-08T09:13:22;99768.28;;;11.50;52.51
78488;BME280;67885;49.758;9.582;2023-04-08T09:16:03;99759.22;;;11.41;50.84
78488;BME280;67885;49.758;9.582;2023-04-08T09:18:31;99771.19;;;11.58;52.06
78488;BME280;67885;49.758;9.582;2023-04-08T09:21:01;99761.09;;;11.63;51.23
78488;BME280;67885;49.758;9.582;2023-04-08T09:23:41;99769.22;;;11.84;51.62
78488;BME280;67885;49.758;9.582;2023-04-08T09:26:10;99768.94;;;11.64;51.06
78488;BME280;67885;49.758;9.582;2023-04-08T09:28:38;99773.00;;;11.93;49.99
78488;BME280;67885;49.758;9.582;2023-04-08T09:31:21;99774.47;;;11.97;49.30
78488;BME280;67885;49.758;9.582;2023-04-08T09:33:49;99772.31;;;12.02;49.98
78488;BME280;67885;49.758;9.582;2023-04-08T09:36:16;99777.00;;;11.98;48.14
78488;BME280;67885;49.758;9.582;2023-04-08T09:38:45;99778.31;;;11.93;49.53
78488;BME280;67885;49.758;9.582;2023-04-08T09:41:14;99773.81;;;11.93;49.46
78488;BME280;67885;49.758;9.582;2023-04-08T09:43:42;99784.25;;;11.96;49.86
78488;BME280;67885;49.758;9.582;2023-04-08T09:46:15;99778.22;;;11.94;48.69
78488;BME280;67885;49.758;9.582;2023-04-08T09:48:49;99750.63;;;11.73;48.42
78488;BME280;67885;49.758;9.582;2023-04-08T09:51:18;99761.75;;;11.78;47.82
78488;BME280;67885;49.758;9.582;2023-04-08T09:53:55;99765.59;;;11.85;48.90
78488;BME280;67885;49.758;9.582;2023-04-08T09:56:26;99764.94;;;11.94;48.29
78488;BME280;67885;49.758;9.582;2023-04-08T09:59:00;99783.31;;;12.20;47.49
78488;BME280;67885;49.758;9.582;2023-04-08T10:01:37;99767.72;;;12.04;46.39
78488;BME280;67885;49.758;9.582;2023-04-08T10:04:07;99778.75;;;12.22;46.38
78488;BME280;67885;49.758;9.582;2023-04-08T10:06:37;99773.06;;;12.27;47.81
78488;BME280;67885;49.758;9.582;2023-04-08T10:09:07;99754.09;;;12.31;47.20
78488;BME280;67885;49.758;9.582;2023-04-08T10:11:35;99788.06;;;12.62;46.79
78488;BME280;67885;49.758;9.582;2023-04-08T10:14:03;99790.22;;;12.79;48.71
78488;BME280;67885;49.758;9.582;2023-04-08T10:16:31;99732.22;;;12.73;45.38
78488;BME280;67885;49.758;9.582;2023-04-08T10:19:00;99719.16;;;12.81;44.28
78488;BME280;67885;49.758;9.582;2023-04-08T10:21:31;99783.09;;;13.24;45.05
78488;BME280;67885;49.758;9.582;2023-04-08T10:23:59;99776.47;;;13.18;44.27
78488;BME280;67885;49.758;9.582;2023-04-08T10:26:39;99759.81;;;13.16;45.55
78488;BME280;67885;49.758;9.582;2023-04-08T10:29:29;99781.38;;;13.34;45.50
78488;BME280;67885;49.758;9.582;2023-04-08T10:31:57;99774.56;;;13.53;48.04
78488;BME280;67885;49.758;9.582;2023-04-08T10:34:25;99760.75;;;13.59;47.56
78488;BME280;67885;49.758;9.582;2023-04-08T10:36:54;99759.84;;;13.70;43.81
78488;BME280;67885;49.758;9.582;2023-04-08T10:39:21;99783.09;;;13.89;43.87
78488;BME280;67885;49.758;9.582;2023-04-08T10:41:50;99773.47;;;13.76;44.36
78488;BME280;67885;49.758;9.582;2023-04-08T10:44:17;99766.66;;;13.62;43.77
78488;BME280;67885;49.758;9.582;2023-04-08T10:46:44;99714.50;;;13.06;44.38
78488;BME280;67885;49.758;9.582;2023-04-08T10:49:11;99761.81;;;13.68;45.43
78488;BME280;67885;49.758;9.582;2023-04-08T10:51:38;99763.38;;;13.70;43.76
78488;BME280;67885;49.758;9.582;2023-04-08T10:54:06;99763.56;;;13.78;43.00
78488;BME280;67885;49.758;9.582;2023-04-08T10:56:35;99749.19;;;13.70;43.69
78488;BME280;67885;49.758;9.582;2023-04-08T10:59:03;99775.38;;;13.86;44.75
78488;BME280;67885;49.758;9.582;2023-04-08T11:01:38;99769.63;;;13.90;43.82
78488;BME280;67885;49.758;9.582;2023-04-08T11:04:10;99755.91;;;13.85;43.75
78488;BME280;67885;49.758;9.582;2023-04-08T11:06:38;99758.41;;;13.65;43.89
78488;BME280;67885;49.758;9.582;2023-04-08T11:11:41;99754.91;;;13.65;45.45
78488;BME280;67885;49.758;9.582;2023-04-08T11:14:10;99750.75;;;13.72;44.63
78488;BME280;67885;49.758;9.582;2023-04-08T11:16:37;99718.47;;;13.65;44.43
78488;BME280;67885;49.758;9.582;2023-04-08T11:19:06;99744.66;;;13.81;45.62
78488;BME280;67885;49.758;9.582;2023-04-08T11:21:35;99710.69;;;13.74;45.99
78488;BME280;67885;49.758;9.582;2023-04-08T11:24:08;99740.28;;;14.02;45.47
78488;BME280;67885;49.758;9.582;2023-04-08T11:26:36;99741.72;;;14.06;47.15
78488;BME280;67885;49.758;9.582;2023-04-08T11:29:05;99743.72;;;14.13;46.36
78488;BME280;67885;49.758;9.582;2023-04-08T11:34:08;99755.63;;;14.50;44.74
78488;BME280;67885;49.758;9.582;2023-04-08T11:36:36;99762.84;;;14.59;43.08
78488;BME280;67885;49.758;9.582;2023-04-08T11:39:06;99762.59;;;14.62;43.67
78488;BME280;67885;49.758;9.582;2023-04-08T11:41:37;99759.00;;;14.73;42.93
78488;BME280;67885;49.758;9.582;2023-04-08T11:44:04;99763.34;;;14.74;43.42
78488;BME280;67885;49.758;9.582;2023-04-08T11:46:32;99758.00;;;14.74;41.91
78488;BME280;67885;49.758;9.582;2023-04-08T11:49:01;99670.00;;;14.24;42.81
78488;BME280;67885;49.758;9.582;2023-04-08T11:51:29;99759.16;;;14.81;41.73
78488;BME280;67885;49.758;9.582;2023-04-08T11:53:56;99762.66;;;14.82;41.70
78488;BME280;67885;49.758;9.582;2023-04-08T11:56:24;99763.78;;;14.79;43.21
78488;BME280;67885;49.758;9.582;2023-04-08T11:58:51;99762.81;;;14.80;42.87
78488;BME280;67885;49.758;9.582;2023-04-08T12:01:18;99762.81;;;14.80;42.40
78488;BME280;67885;49.758;9.582;2023-04-08T12:03:57;99748.22;;;14.54;44.06
78488;BME280;67885;49.758;9.582;2023-04-08T12:06:23;99764.06;;;14.86;42.41
78488;BME280;67885;49.758;9.582;2023-04-08T12:08:53;99762.97;;;14.89;42.79
78488;BME280;67885;49.758;9.582;2023-04-08T12:11:20;99745.38;;;14.76;42.50
78488;BME280;67885;49.758;9.582;2023-04-08T12:13:47;99702.53;;;14.18;41.59
78488;BME280;67885;49.758;9.582;2023-04-08T12:16:15;99743.91;;;14.62;43.91
78488;BME280;67885;49.758;9.582;2023-04-08T12:18:42;99767.00;;;14.73;42.76
78488;BME280;67885;49.758;9.582;2023-04-08T12:21:09;99765.31;;;14.72;42.78
78488;BME280;67885;49.758;9.582;2023-04-08T12:23:36;99770.06;;;14.69;43.36
78488;BME280;67885;49.758;9.582;2023-04-08T12:26:04;99398.56;;;12.38;43.66
78488;BME280;67885;49.758;9.582;2023-04-08T12:28:31;99770.69;;;14.61;43.24
78488;BME280;67885;49.758;9.582;2023-04-08T12:30:59;99770.56;;;14.62;43.11
78488;BME280;67885;49.758;9.582;2023-04-08T12:33:26;99765.50;;;14.59;43.79
78488;BME280;67885;49.758;9.582;2023-04-08T12:35:53;99767.81;;;14.64;43.07
78488;BME280;67885;49.758;9.582;2023-04-08T12:38:20;99768.63;;;14.64;43.03
78488;BME280;67885;49.758;9.582;2023-04-08T12:40:46;99756.66;;;14.59;43.74
78488;BME280;67885;49.758;9.582;2023-04-08T12:43:14;99746.44;;;14.54;43.78
78488;BME280;67885;49.758;9.582;2023-04-08T12:45:42;99755.41;;;14.53;43.79
78488;BME280;67885;49.758;9.582;2023-04-08T12:48:08;99773.97;;;14.64;43.57
78488;BME280;67885;49.758;9.582;2023-04-08T12:50:35;99814.09;;;14.63;44.13
78488;BME280;67885;49.758;9.582;2023-04-08T12:53:02;99753.09;;;14.48;43.10
78488;BME280;67885;49.758;9.582;2023-04-08T12:55:28;99766.59;;;14.57;43.93
78488;BME280;67885;49.758;9.582;2023-04-08T12:57:55;99772.81;;;14.57;43.70
78488;BME280;67885;49.758;9.582;2023-04-08T13:00:24;99778.13;;;14.57;44.74
78488;BME280;67885;49.758;9.582;2023-04-08T13:02:51;99719.69;;;14.34;43.73
78488;BME280;67885;49.758;9.582;2023-04-08T13:05:18;99690.16;;;14.07;44.45
78488;BME280;67885;49.758;9.582;2023-04-08T13:07:45;99772.34;;;14.52;43.82
78488;BME280;67885;49.758;9.582;2023-04-08T13:10:12;99755.09;;;14.46;44.24
78488;BME280;67885;49.758;9.582;2023-04-08T13:12:39;99740.03;;;14.36;44.20